Time;durP1;ratioP1;P1;durP2;ratioP2;P2;SDS_P1;SDS_P2;PMS_P1;PMS_P2;Temp;Humidity;BMP_temperature;BMP_pressure;BME280_temperature;BME280_humidity;BME280_pressure;Samples;Min_cycle;Max_cycle;Signal;HPM_P1;HPM_P2
2024/01/27 00:02:04;;;;;;;7.18;4.10;;;;;;;0.79;100.00;99067.06;4997993;28;20399;-78
2024/01/27 00:04:30;;;;;;;7.55;4.40;;;;;;;0.73;100.00;99065.88;4998381;28;20406;-78
2024/01/27 00:06:57;;;;;;;6.32;4.30;;;;;;;0.70;100.00;99075.78;4998299;28;20399;-77
2024/01/27 00:09:23;;;;;;;7.25;4.10;;;;;;;0.65;100.00;99072.81;5001074;28;20426;-78
2024/01/27 00:11:49;;;;;;;7.65;5.10;;;;;;;0.63;100.00;99078.16;4997316;28;20410;-77
2024/01/27 00:14:15;;;;;;;7.45;4.38;;;;;;;0.59;100.00;99076.00;4995570;28;20403;-78
2024/01/27 00:16:42;;;;;;;8.48;4.90;;;;;;;0.56;100.00;99064.06;4994468;28;20832;-78
2024/01/27 00:19:08;;;;;;;11.48;5.15;;;;;;;0.54;100.00;99068.59;4993345;28;20886;-78
2024/01/27 00:21:34;;;;;;;10.45;5.28;;;;;;;0.52;100.00;99074.94;4993837;28;20461;-78
2024/01/27 00:24:03;;;;;;;9.10;4.75;;;;;;;0.48;100.00;99069.19;4993924;28;20403;-77
2024/01/27 00:26:29;;;;;;;7.80;4.60;;;;;;;0.47;100.00;99071.94;4994286;28;20406;-78
2024/01/27 00:28:57;;;;;;;12.13;5.60;;;;;;;0.47;100.00;99077.97;4993551;28;21316;-77
2024/01/27 00:31:23;;;;;;;9.95;5.45;;;;;;;0.46;100.00;99076.31;4994587;28;20394;-78
2024/01/27 00:33:49;;;;;;;11.45;5.68;;;;;;;0.47;100.00;99079.75;4994430;28;20859;-77
2024/01/27 00:36:15;;;;;;;10.52;5.75;;;;;;;0.45;100.00;99082.53;4993713;28;20406;-77
2024/01/27 00:38:42;;;;;;;13.43;6.20;;;;;;;0.48;100.00;99081.38;4993871;28;20410;-78
2024/01/27 00:41:12;;;;;;;8.60;5.60;;;;;;;0.49;100.00;99081.25;4995673;28;20479;-79
2024/01/27 00:43:38;;;;;;;9.15;5.38;;;;;;;0.50;100.00;99088.09;4997074;28;20883;-79
2024/01/27 00:46:04;;;;;;;10.20;5.40;;;;;;;0.49;100.00;99083.84;4997495;28;20402;-79
2024/01/27 00:48:30;;;;;;;12.75;6.55;;;;;;;0.51;100.00;99088.94;4997354;28;20403;-79
2024/01/27 00:50:57;;;;;;;8.97;6.03;;;;;;;0.53;100.00;99093.00;4997486;28;20409;-79
2024/01/27 00:53:23;;;;;;;10.98;6.25;;;;;;;0.57;100.00;99090.94;4998327;28;20442;-79
2024/01/27 00:55:50;;;;;;;11.65;6.45;;;;;;;0.54;100.00;99092.03;4997193;28;20403;-79
2024/01/27 00:58:17;;;;;;;12.38;6.50;;;;;;;0.56;100.00;99089.31;4997961;28;20407;-79
2024/01/27 01:00:44;;;;;;;11.55;6.63;;;;;;;0.54;100.00;99093.84;4996948;28;20426;-79
2024/01/27 01:03:10;;;;;;;13.77;7.03;;;;;;;0.53;100.00;99095.63;4998264;28;20433;-79
2024/01/27 01:05:36;;;;;;;17.40;7.03;;;;;;;0.52;100.00;99088.78;4997487;28;20399;-79
2024/01/27 01:08:02;;;;;;;13.63;7.00;;;;;;;0.53;100.00;99094.78;4998391;28;20422;-79
2024/01/27 01:10:29;;;;;;;10.27;6.57;;;;;;;0.53;100.00;99102.59;4997864;28;20410;-79
2024/01/27 01:12:55;;;;;;;10.20;6.45;;;;;;;0.53;100.00;99098.22;4997237;28;20974;-79
2024/01/27 01:15:23;;;;;;;11.15;6.35;;;;;;;0.50;100.00;99103.75;4999555;28;20509;-79
2024/01/27 01:17:49;;;;;;;12.07;7.18;;;;;;;0.48;100.00;99104.84;5012694;28;20441;-79
2024/01/27 01:20:15;;;;;;;13.73;7.20;;;;;;;0.46;100.00;99109.38;5012019;28;20815;-79
2024/01/27 01:22:42;;;;;;;18.67;8.30;;;;;;;0.46;100.00;99106.75;5001311;28;20417;-79
2024/01/27 01:25:08;;;;;;;15.48;7.55;;;;;;;0.46;100.00;99107.56;5001544;28;20485;-79
2024/01/27 01:27:34;;;;;;;13.70;8.02;;;;;;;0.45;100.00;99108.56;5001572;28;20807;-79
2024/01/27 01:30:00;;;;;;;14.15;7.55;;;;;;;0.46;100.00;99106.75;5001724;28;20429;-79
2024/01/27 01:32:28;;;;;;;15.57;6.70;;;;;;;0.43;100.00;99101.84;5002524;28;20504;-79
2024/01/27 01:34:54;;;;;;;18.38;8.38;;;;;;;0.39;100.00;99103.91;5002909;28;20426;-79
2024/01/27 01:37:20;;;;;;;12.60;7.60;;;;;;;0.35;100.00;99113.00;5005032;28;20888;-79
2024/01/27 01:39:46;;;;;;;17.30;7.53;;;;;;;0.32;100.00;99113.28;5001221;28;20410;-79
2024/01/27 01:42:12;;;;;;;18.13;8.02;;;;;;;0.27;100.00;99116.31;5000669;28;20398;-79
2024/01/27 01:44:39;;;;;;;16.63;7.80;;;;;;;0.25;100.00;99120.84;5000985;28;20409;-79
2024/01/27 01:47:05;;;;;;;15.40;7.18;;;;;;;0.21;100.00;99123.88;5000815;28;20793;-79
2024/01/27 01:49:33;;;;;;;13.30;7.20;;;;;;;0.17;100.00;99118.13;5000449;28;20445;-79
2024/01/27 01:51:59;;;;;;;16.92;7.18;;;;;;;0.15;100.00;99117.44;4999829;28;20402;-79
2024/01/27 01:54:27;;;;;;;12.82;6.82;;;;;;;0.12;100.00;99112.53;5000636;28;20957;-79
2024/01/27 01:56:54;;;;;;;15.52;7.30;;;;;;;0.09;100.00;99115.41;5001182;28;20409;-79
2024/01/27 01:59:21;;;;;;;15.73;7.50;;;;;;;0.07;100.00;99122.56;5002543;28;20815;-79
2024/01/27 02:01:47;;;;;;;14.57;7.07;;;;;;;0.02;100.00;99122.16;5002816;28;20429;-79
2024/01/27 02:04:13;;;;;;;17.05;8.35;;;;;;;0.01;100.00;99123.09;5003196;28;20402;-79
2024/01/27 02:06:41;;;;;;;17.75;9.18;;;;;;;0.00;100.00;99129.31;5000913;28;20410;-79
2024/01/27 02:09:07;;;;;;;14.40;7.60;;;;;;;-0.04;100.00;99130.53;5000367;28;20405;-79
2024/01/27 02:11:33;;;;;;;15.00;7.90;;;;;;;-0.08;100.00;99137.81;5000332;28;20449;-79
2024/01/27 02:13:59;;;;;;;16.47;7.73;;;;;;;-0.09;100.00;99140.56;4999819;28;20425;-79
2024/01/27 02:16:25;;;;;;;15.43;7.30;;;;;;;-0.12;100.00;99141.66;5001057;28;20457;-79
2024/01/27 02:18:51;;;;;;;12.50;6.70;;;;;;;-0.13;100.00;99147.81;5000631;28;20394;-79
2024/01/27 02:21:17;;;;;;;12.50;6.77;;;;;;;-0.18;100.00;99150.00;5000093;28;20414;-79
2024/01/27 02:23:45;;;;;;;12.88;6.72;;;;;;;-0.21;100.00;99155.50;5000428;28;20565;-79
2024/01/27 02:26:12;;;;;;;14.73;7.03;;;;;;;-0.23;100.00;99152.22;5000821;28;20783;-79
2024/01/27 02:28:39;;;;;;;16.35;8.18;;;;;;;-0.26;100.00;99151.66;4998931;28;20892;-79
2024/01/27 02:31:05;;;;;;;15.27;7.63;;;;;;;-0.25;100.00;99156.75;4999636;28;20405;-79
2024/01/27 02:33:31;;;;;;;22.08;8.70;;;;;;;-0.28;100.00;99164.81;4999468;28;20448;-79
2024/01/27 02:35:57;;;;;;;18.90;8.63;;;;;;;-0.29;100.00;99173.56;5000204;28;20437;-79
2024/01/27 02:38:23;;;;;;;17.92;8.10;;;;;;;-0.30;100.00;99166.72;5000339;28;20417;-79
2024/01/27 02:40:49;;;;;;;20.85;8.52;;;;;;;-0.29;100.00;99176.16;4999891;28;20403;-79
2024/01/27 02:43:17;;;;;;;18.40;8.68;;;;;;;-0.30;100.00;99179.72;5000855;28;20430;-79
2024/01/27 02:45:43;;;;;;;18.45;7.97;;;;;;;-0.29;100.00;99185.75;4998770;28;20410;-79
2024/01/27 02:48:10;;;;;;;14.82;8.15;;;;;;;-0.30;100.00;99181.53;5000296;28;20399;-80
2024/01/27 02:50:40;;;;;;;18.55;8.10;;;;;;;-0.32;100.00;99180.84;5005117;28;20467;-79
2024/01/27 02:53:06;;;;;;;19.85;8.68;;;;;;;-0.33;100.00;99174.81;4999542;28;20783;-79
2024/01/27 02:55:36;;;;;;;21.88;9.10;;;;;;;-0.33;100.00;99174.00;4998946;28;20806;-79
2024/01/27 02:58:06;;;;;;;18.10;7.78;;;;;;;-0.35;100.00;99181.13;4999160;28;20808;-79
2024/01/27 03:00:33;;;;;;;14.77;7.80;;;;;;;-0.38;100.00;99177.03;4999079;28;20410;-79
2024/01/27 03:03:00;;;;;;;18.48;8.23;;;;;;;-0.38;100.00;99180.41;4998696;28;20413;-80
2024/01/27 03:05:26;;;;;;;20.95;8.55;;;;;;;-0.40;100.00;99176.34;4997708;28;20433;-78
2024/01/27 03:07:52;;;;;;;15.55;8.00;;;;;;;-0.41;100.00;99179.88;4997289;28;20461;-78
2024/01/27 03:10:19;;;;;;;19.90;8.35;;;;;;;-0.42;100.00;99179.06;4997253;28;20758;-78
2024/01/27 03:12:45;;;;;;;19.13;8.98;;;;;;;-0.43;100.00;99184.41;4996971;28;20843;-78
2024/01/27 03:15:11;;;;;;;18.65;9.05;;;;;;;-0.44;100.00;99180.16;4997427;28;20429;-78
2024/01/27 03:17:39;;;;;;;22.63;9.23;;;;;;;-0.50;100.00;99183.31;4997547;28;20434;-78
2024/01/27 03:20:08;;;;;;;25.27;9.10;;;;;;;-0.50;100.00;99181.53;4997109;28;20391;-78
2024/01/27 03:22:34;;;;;;;17.23;8.20;;;;;;;-0.55;100.00;99177.69;4997025;28;20915;-78
2024/01/27 03:25:00;;;;;;;13.83;7.30;;;;;;;-0.60;100.00;99172.09;4997752;28;20445;-78
2024/01/27 03:27:27;;;;;;;11.82;6.40;;;;;;;-0.63;100.00;99177.56;4997606;28;20398;-78
2024/01/27 03:29:53;;;;;;;12.80;6.95;;;;;;;-0.67;100.00;99178.78;4997862;28;20398;-78
2024/01/27 03:32:19;;;;;;;13.27;6.70;;;;;;;-0.72;100.00;99184.38;4997579;28;20436;-78
2024/01/27 03:34:47;;;;;;;16.77;8.65;;;;;;;-0.71;100.00;99195.63;4996859;28;20421;-78
2024/01/27 03:37:13;;;;;;;20.05;8.82;;;;;;;-0.74;100.00;99201.91;4995240;28;20398;-78
2024/01/27 03:39:42;;;;;;;19.77;8.67;;;;;;;-0.75;100.00;99209.84;4994474;28;20406;-79
2024/01/27 03:42:08;;;;;;;18.95;9.00;;;;;;;-0.76;100.00;99214.22;4999443;28;20410;-79
2024/01/27 03:44:34;;;;;;;18.77;8.35;;;;;;;-0.76;100.00;99221.22;4999960;28;20403;-79
2024/01/27 03:47:01;;;;;;;14.05;8.18;;;;;;;-0.77;100.00;99220.38;4996220;28;20406;-79
2024/01/27 03:49:27;;;;;;;15.00;7.82;;;;;;;-0.80;100.00;99220.63;4998753;28;20819;-79
2024/01/27 03:51:54;;;;;;;13.70;7.30;;;;;;;-0.82;100.00;99227.75;4999721;28;20481;-79
2024/01/27 03:54:20;;;;;;;11.63;6.63;;;;;;;-0.87;100.00;99220.34;4999613;28;20422;-79
2024/01/27 03:56:46;;;;;;;20.35;8.57;;;;;;;-0.87;100.00;99222.13;5000051;28;20433;-79
2024/01/27 03:59:13;;;;;;;22.00;8.70;;;;;;;-0.88;100.00;99217.88;5000776;28;20398;-79
2024/01/27 04:01:39;;;;;;;19.90;8.73;;;;;;;-0.89;100.00;99221.44;5000892;28;20417;-79
2024/01/27 04:04:05;;;;;;;15.47;7.73;;;;;;;-0.92;100.00;99212.16;5000739;28;20403;-79
2024/01/27 04:06:37;;;;;;;17.08;8.35;;;;;;;-0.95;100.00;99222.78;5004665;28;20405;-80
2024/01/27 04:09:04;;;;;;;17.60;7.60;;;;;;;-0.97;100.00;99222.09;5012876;28;20421;-79
2024/01/27 04:11:30;;;;;;;25.83;8.90;;;;;;;-1.00;100.00;99224.97;5001948;28;20469;-79
2024/01/27 04:13:56;;;;;;;12.98;6.97;;;;;;;-1.02;100.00;99226.06;5005157;28;20415;-80
2024/01/27 04:16:22;;;;;;;15.77;7.13;;;;;;;-1.05;100.00;99224.53;5004151;28;20402;-80
2024/01/27 04:18:49;;;;;;;12.75;6.60;;;;;;;-1.09;100.00;99217.97;5006074;28;20506;-79
2024/01/27 04:21:15;;;;;;;11.90;5.95;;;;;;;-1.11;100.00;99219.06;4998266;28;20497;-80
2024/01/27 04:23:41;;;;;;;12.48;6.40;;;;;;;-1.15;100.00;99226.31;4999274;28;20410;-79
2024/01/27 04:26:10;;;;;;;10.52;6.00;;;;;;;-1.18;100.00;99229.16;4999870;28;20406;-79
2024/01/27 04:28:36;;;;;;;11.10;5.47;;;;;;;-1.23;100.00;99229.56;4999776;28;20815;-79
2024/01/27 04:31:02;;;;;;;10.47;5.70;;;;;;;-1.25;100.00;99231.44;4999992;28;20453;-79
2024/01/27 04:33:28;;;;;;;11.70;5.60;;;;;;;-1.28;100.00;99234.31;5000738;28;20439;-79
2024/01/27 04:35:55;;;;;;;10.90;5.75;;;;;;;-1.30;100.00;99236.22;5008363;28;20410;-79
2024/01/27 04:38:21;;;;;;;10.82;5.80;;;;;;;-1.33;100.00;99239.06;5014216;28;20403;-79
2024/01/27 04:40:48;;;;;;;11.35;6.07;;;;;;;-1.34;100.00;99239.19;4993289;28;20438;-79
2024/01/27 04:43:16;;;;;;;10.30;6.13;;;;;;;-1.36;100.00;99238.53;5000297;28;20406;-79
2024/01/27 04:45:42;;;;;;;13.77;6.40;;;;;;;-1.39;100.00;99242.19;5014722;28;20394;-79
2024/01/27 04:48:09;;;;;;;10.80;5.80;;;;;;;-1.41;100.00;99246.69;5016302;28;20482;-79
2024/01/27 04:50:35;;;;;;;9.73;5.90;;;;;;;-1.44;100.00;99238.34;4998458;28;20457;-79
2024/01/27 04:53:01;;;;;;;9.80;5.60;;;;;;;-1.46;100.00;99235.06;4998200;28;20419;-79
2024/01/27 04:55:28;;;;;;;13.85;5.80;;;;;;;-1.48;100.00;99239.56;4996291;28;20411;-79
2024/01/27 04:57:54;;;;;;;11.40;5.28;;;;;;;-1.52;100.00;99241.59;4997661;28;20462;-79
2024/01/27 05:00:21;;;;;;;11.27;5.65;;;;;;;-1.51;100.00;99239.81;4997021;28;20407;-79
2024/01/27 05:02:48;;;;;;;11.13;5.47;;;;;;;-1.52;100.00;99249.38;4997504;28;20403;-79
2024/01/27 05:05:14;;;;;;;8.95;5.47;;;;;;;-1.56;100.00;99242.78;4997078;28;20399;-79
2024/01/27 05:07:40;;;;;;;10.82;5.65;;;;;;;-1.55;100.00;99252.22;4996802;28;20472;-79
2024/01/27 05:10:10;;;;;;;10.05;5.93;;;;;;;-1.58;100.00;99247.31;4997228;28;20394;-79
2024/01/27 05:12:36;;;;;;;11.45;6.30;;;;;;;-1.59;100.00;99251.69;4997033;28;20418;-79
2024/01/27 05:15:02;;;;;;;12.70;6.50;;;;;;;-1.60;100.00;99246.59;4996903;28;20788;-79
2024/01/27 05:17:30;;;;;;;11.82;6.70;;;;;;;-1.62;100.00;99246.72;4996890;28;20411;-79
2024/01/27 05:19:57;;;;;;;11.10;6.28;;;;;;;-1.63;100.00;99241.66;4996501;28;20398;-79
2024/01/27 05:22:23;;;;;;;15.03;6.60;;;;;;;-1.64;100.00;99240.84;4996729;28;20483;-79
2024/01/27 05:24:49;;;;;;;11.73;6.03;;;;;;;-1.67;100.00;99248.91;4997161;28;20410;-79
2024/01/27 05:27:15;;;;;;;10.63;5.68;;;;;;;-1.69;100.00;99248.19;4996502;28;20872;-79
2024/01/27 05:29:41;;;;;;;10.93;5.63;;;;;;;-1.69;100.00;99234.38;4996247;28;20406;-79
2024/01/27 05:32:08;;;;;;;10.95;5.45;;;;;;;-1.70;100.00;99246.53;4996202;28;20422;-78
2024/01/27 05:34:35;;;;;;;10.32;5.82;;;;;;;-1.71;100.00;99234.50;4996174;28;20502;-79
2024/01/27 05:37:01;;;;;;;9.00;5.65;;;;;;;-1.74;100.00;99231.38;4995849;28;20398;-79
2024/01/27 05:39:29;;;;;;;10.63;5.85;;;;;;;-1.73;100.00;99235.59;4995871;28;20429;-79
2024/01/27 05:41:55;;;;;;;12.45;7.10;;;;;;;-1.69;100.00;99230.03;4996199;28;20407;-79
2024/01/27 05:44:21;;;;;;;12.82;6.50;;;;;;;-1.64;100.00;99230.44;4996479;28;20407;-79
2024/01/27 05:46:47;;;;;;;10.43;6.20;;;;;;;-1.61;100.00;99230.19;4996024;28;20395;-79
2024/01/27 05:49:13;;;;;;;10.23;6.43;;;;;;;-1.58;100.00;99242.13;4996646;28;20464;-79
2024/01/27 05:51:41;;;;;;;12.35;6.90;;;;;;;-1.59;100.00;99236.09;4996893;28;20466;-79
2024/01/27 05:54:08;;;;;;;14.43;6.68;;;;;;;-1.62;100.00;99241.53;4996231;28;20449;-79
2024/01/27 05:56:35;;;;;;;11.48;6.55;;;;;;;-1.65;100.00;99249.56;4996522;28;20493;-79
2024/01/27 05:59:02;;;;;;;14.95;6.93;;;;;;;-1.67;100.00;99237.69;4996254;28;20399;-79
2024/01/27 06:01:28;;;;;;;11.77;6.65;;;;;;;-1.73;100.00;99244.19;4996271;28;20410;-79
2024/01/27 06:03:55;;;;;;;13.07;6.85;;;;;;;-1.77;100.00;99245.41;4998334;28;20411;-79
2024/01/27 06:06:21;;;;;;;13.40;6.83;;;;;;;-1.78;100.00;99250.72;5000189;28;20883;-79
2024/01/27 06:08:48;;;;;;;15.65;7.25;;;;;;;-1.81;100.00;99243.22;4999292;28;20426;-81
2024/01/27 06:11:14;;;;;;;15.82;7.13;;;;;;;-1.84;100.00;99249.47;5000557;28;20410;-80
2024/01/27 06:13:41;;;;;;;14.40;6.68;;;;;;;-1.86;100.00;99246.16;5003117;28;20422;-80
2024/01/27 06:16:09;;;;;;;12.88;6.72;;;;;;;-1.87;100.00;99248.88;5004603;28;20430;-80
2024/01/27 06:18:35;;;;;;;14.25;6.88;;;;;;;-1.90;100.00;99242.19;5004151;28;20433;-80
2024/01/27 06:21:03;;;;;;;13.52;6.88;;;;;;;-1.92;100.00;99254.47;5006929;28;20410;-79
2024/01/27 06:23:29;;;;;;;11.85;6.50;;;;;;;-1.91;100.00;99255.28;5015797;28;20487;-79
2024/01/27 06:25:56;;;;;;;13.75;6.50;;;;;;;-1.92;100.00;99264.03;5010702;28;20402;-80
2024/01/27 06:28:22;;;;;;;11.27;5.82;;;;;;;-1.95;100.00;99268.50;5011188;28;20406;-79
2024/01/27 06:30:49;;;;;;;16.00;7.32;;;;;;;-1.95;100.00;99263.31;5009554;28;20437;-78
2024/01/27 06:33:15;;;;;;;16.03;6.70;;;;;;;-1.96;100.00;99268.66;5010856;28;20426;-79
2024/01/27 06:35:41;;;;;;;15.15;7.43;;;;;;;-1.96;100.00;99261.69;5009858;28;20434;-80
2024/01/27 06:38:07;;;;;;;20.40;8.00;;;;;;;-1.95;100.00;99268.50;5006131;28;20771;-79
2024/01/27 06:40:33;;;;;;;15.83;7.37;;;;;;;-1.96;100.00;99274.66;5006465;28;20433;-80
2024/01/27 06:43:01;;;;;;;17.45;7.65;;;;;;;-1.96;100.00;99276.44;5007861;28;20445;-81
2024/01/27 06:45:27;;;;;;;15.07;7.10;;;;;;;-1.96;100.00;99282.44;5008931;28;20490;-82
2024/01/27 06:47:53;;;;;;;15.57;7.20;;;;;;;-1.97;100.00;99279.97;5005193;28;20938;-82
2024/01/27 06:50:19;;;;;;;23.88;7.45;;;;;;;-1.98;100.00;99281.75;5003239;28;20903;-81
2024/01/27 06:52:45;;;;;;;14.40;7.23;;;;;;;-1.98;100.00;99275.72;5003966;28;20438;-80
2024/01/27 06:55:12;;;;;;;18.40;7.53;;;;;;;-2.01;100.00;99275.97;5002997;28;20520;-81
2024/01/27 06:57:40;;;;;;;15.93;7.13;;;;;;;-2.01;100.00;99274.19;4999335;28;20398;-81
2024/01/27 07:00:09;;;;;;;16.95;7.22;;;;;;;-2.00;100.00;99270.66;5000988;28;20890;-80
2024/01/27 07:02:35;;;;;;;15.40;6.70;;;;;;;-1.92;100.00;99280.41;5000989;28;20775;-81
2024/01/27 07:05:01;;;;;;;12.65;6.20;;;;;;;-1.87;100.00;99286.03;5000362;28;20410;-80
2024/01/27 07:07:28;;;;;;;16.08;5.65;;;;;;;-1.84;100.00;99287.56;4999751;28;20736;-78
2024/01/27 07:09:55;;;;;;;10.77;5.60;;;;;;;-1.85;100.00;99281.56;4996495;28;20770;-80
2024/01/27 07:12:22;;;;;;;11.77;5.80;;;;;;;-1.86;100.00;99277.31;4996817;28;20414;-80
2024/01/27 07:14:48;;;;;;;13.13;6.28;;;;;;;-1.86;100.00;99279.91;4999303;28;20434;-80
2024/01/27 07:17:15;;;;;;;10.77;5.53;;;;;;;-1.88;100.00;99284.41;5000922;28;20405;-80
2024/01/27 07:19:43;;;;;;;11.18;5.20;;;;;;;-1.89;100.00;99285.38;5002132;28;20409;-81
2024/01/27 07:22:09;;;;;;;9.57;5.18;;;;;;;-1.90;100.00;99280.28;5002797;28;20483;-81
2024/01/27 07:24:36;;;;;;;9.40;5.20;;;;;;;-1.90;100.00;99280.28;5001172;28;20775;-80
2024/01/27 07:27:03;;;;;;;15.57;5.95;;;;;;;-1.90;100.00;99282.91;5001839;28;20414;-80
2024/01/27 07:29:29;;;;;;;18.02;7.20;;;;;;;-1.91;100.00;99279.47;5002128;28;20444;-80
2024/01/27 07:31:56;;;;;;;12.20;5.88;;;;;;;-1.89;100.00;99281.94;5004554;28;20395;-81
2024/01/27 07:34:23;;;;;;;10.20;5.40;;;;;;;-1.89;100.00;99287.13;5003730;28;20839;-80
2024/01/27 07:36:49;;;;;;;13.50;6.15;;;;;;;-1.88;100.00;99281.78;5004852;28;20410;-81
2024/01/27 07:39:16;;;;;;;15.97;6.93;;;;;;;-1.86;100.00;99292.88;5002877;28;20945;-81
2024/01/27 07:41:42;;;;;;;14.68;6.50;;;;;;;-1.85;100.00;99286.75;5003793;28;20409;-81
2024/01/27 07:44:10;;;;;;;13.88;6.97;;;;;;;-1.84;100.00;99280.59;5003658;28;20410;-81
2024/01/27 07:46:36;;;;;;;19.63;7.80;;;;;;;-1.82;100.00;99283.91;5003475;28;20407;-80
2024/01/27 07:49:03;;;;;;;12.75;6.82;;;;;;;-1.80;100.00;99282.00;5005000;28;20494;-81
2024/01/27 07:51:30;;;;;;;14.52;7.03;;;;;;;-1.78;100.00;99284.47;5005285;28;20406;-81
2024/01/27 07:53:56;;;;;;;12.05;6.80;;;;;;;-1.75;100.00;99279.03;5003306;28;20749;-80
2024/01/27 07:56:22;;;;;;;19.33;7.43;;;;;;;-1.72;100.00;99283.97;5007072;28;20947;-79
2024/01/27 07:58:49;;;;;;;18.23;7.75;;;;;;;-1.69;100.00;99286.31;5007663;28;20417;-80
2024/01/27 08:01:15;;;;;;;17.13;7.57;;;;;;;-1.67;100.00;99289.63;5004084;28;20398;-81
2024/01/27 08:03:42;;;;;;;16.80;7.28;;;;;;;-1.65;100.00;99287.69;4999513;28;20399;-81
2024/01/27 08:06:14;;;;;;;20.80;8.15;;;;;;;-1.63;100.00;99285.78;5002792;28;20403;-80
2024/01/27 08:08:41;;;;;;;19.58;7.93;;;;;;;-1.60;100.00;99280.34;5002236;28;20402;-80
2024/01/27 08:11:08;;;;;;;20.13;9.90;;;;;;;-1.59;100.00;99280.25;5002357;28;20461;-80
2024/01/27 08:13:34;;;;;;;20.75;9.38;;;;;;;-1.56;100.00;99279.16;5004441;28;20426;-81
2024/01/27 08:16:00;;;;;;;25.77;11.13;;;;;;;-1.53;100.00;99283.28;5007480;28;20418;-80
2024/01/27 08:18:26;;;;;;;29.48;11.40;;;;;;;-1.48;100.00;99270.72;5008085;28;20410;-80
2024/01/27 08:20:52;;;;;;;36.50;12.57;;;;;;;-1.42;100.00;99277.97;5022186;28;20409;-79
2024/01/27 08:23:18;;;;;;;27.23;11.77;;;;;;;-1.38;100.00;99269.00;5029055;28;20408;-80
2024/01/27 08:25:49;;;;;;;30.55;12.65;;;;;;;-1.36;100.00;99272.28;5020863;28;20443;-80
2024/01/27 08:28:15;;;;;;;35.13;14.95;;;;;;;-1.30;100.00;99274.38;5021218;28;20397;-80
2024/01/27 08:30:42;;;;;;;36.75;14.38;;;;;;;-1.26;100.00;99275.75;5022812;28;20403;-81
2024/01/27 08:33:08;;;;;;;31.50;14.10;;;;;;;-1.23;100.00;99271.13;5012576;28;20492;-79
2024/01/27 08:35:34;;;;;;;39.92;16.85;;;;;;;-1.21;100.00;99271.00;4980398;28;20404;-81
2024/01/27 08:38:00;;;;;;;41.63;17.33;;;;;;;-1.17;100.00;99269.78;4986635;28;20553;-79
2024/01/27 08:40:26;;;;;;;43.53;16.40;;;;;;;-1.12;100.00;99265.00;4996308;28;20545;-78
2024/01/27 08:42:54;;;;;;;39.38;14.90;;;;;;;-1.06;100.00;99261.06;4992694;28;20777;-79
2024/01/27 08:45:20;;;;;;;33.40;13.80;;;;;;;-1.03;100.00;99260.78;4989872;28;20948;-79
2024/01/27 08:47:46;;;;;;;34.42;13.45;;;;;;;-0.99;100.00;99259.59;4994981;28;20406;-78
2024/01/27 08:50:12;;;;;;;34.78;13.88;;;;;;;-0.95;100.00;99258.34;5003311;28;20485;-81
2024/01/27 08:52:38;;;;;;;43.22;16.45;;;;;;;-0.91;100.00;99259.75;5002366;28;20407;-80
2024/01/27 08:55:05;;;;;;;39.08;16.10;;;;;;;-0.86;100.00;99262.78;5004571;28;20502;-80
2024/01/27 08:57:31;;;;;;;30.05;14.60;;;;;;;-0.80;100.00;99267.44;5009387;28;20407;-78
2024/01/27 08:59:59;;;;;;;37.43;15.80;;;;;;;-0.74;100.00;99266.06;5013898;28;20403;-79
2024/01/27 09:02:28;;;;;;;40.23;17.07;;;;;;;-0.68;100.00;99262.97;5009477;28;20649;-80
2024/01/27 09:04:54;;;;;;;42.17;17.98;;;;;;;-0.62;100.00;99268.44;5004624;28;20426;-81
2024/01/27 09:07:20;;;;;;;47.15;19.88;;;;;;;-0.53;100.00;99267.66;5004742;28;20410;-81
2024/01/27 09:09:46;;;;;;;51.53;21.60;;;;;;;-0.43;100.00;99275.44;5006350;28;20402;-81
2024/01/27 09:12:13;;;;;;;80.15;30.20;;;;;;;-0.30;100.00;99273.41;5009526;28;20492;-80
2024/01/27 09:14:40;;;;;;;56.08;25.77;;;;;;;0.06;100.00;99266.72;5011517;28;20524;-81
2024/01/27 09:17:07;;;;;;;59.63;27.80;;;;;;;0.44;100.00;99259.81;5012373;28;20447;-78
2024/01/27 09:19:33;;;;;;;49.22;24.40;;;;;;;0.61;100.00;99261.66;4994254;28;20459;-78
2024/01/27 09:22:00;;;;;;;39.47;21.15;;;;;;;0.71;100.00;99268.50;4999929;28;20395;-80
2024/01/27 09:24:26;;;;;;;37.72;19.83;;;;;;;0.93;100.00;99276.91;5009968;28;20457;-81
2024/01/27 09:26:53;;;;;;;301.45;68.20;;;;;;;1.44;100.00;99281.59;5009506;28;20417;-81
2024/01/27 09:29:20;;;;;;;1211.18;187.15;;;;;;;2.30;100.00;99282.75;5008624;28;20416;-80
2024/01/27 09:31:46;;;;;;;350.35;57.17;;;;;;;3.31;100.00;99289.84;5003980;28;20533;-79
2024/01/27 09:34:14;;;;;;;81.90;23.17;;;;;;;4.37;100.00;99277.72;5001319;28;20425;-81
2024/01/27 09:36:40;;;;;;;58.95;16.52;;;;;;;5.32;100.00;99276.84;5009866;28;20404;-82
2024/01/27 09:39:07;;;;;;;88.35;19.40;;;;;;;6.17;100.00;99276.81;5008825;28;20402;-81
2024/01/27 09:41:33;;;;;;;53.35;13.60;;;;;;;7.00;100.00;99288.06;5007849;28;20417;-80
2024/01/27 09:44:02;;;;;;;24.73;6.72;;;;;;;7.87;100.00;99274.94;5014317;28;20407;-81
2024/01/27 09:46:29;;;;;;;18.60;4.47;;;;;;;8.56;100.00;99272.53;5011190;28;20402;-80
2024/01/27 09:48:56;;;;;;;5.65;2.70;;;;;;;9.23;100.00;99274.56;5005832;28;21728;-81
2024/01/27 09:51:24;;;;;;;3.83;2.30;;;;;;;9.80;100.00;99274.16;5006956;28;20403;-80
2024/01/27 09:53:51;;;;;;;3.15;2.30;;;;;;;10.34;100.00;99278.56;5001952;28;20852;-80
2024/01/27 09:56:18;;;;;;;3.20;2.10;;;;;;;10.86;100.00;99286.50;5001750;28;20413;-78
2024/01/27 09:58:45;;;;;;;3.90;1.90;;;;;;;11.17;100.00;99285.81;5003553;28;20461;-78
2024/01/27 10:01:12;;;;;;;2.97;1.77;;;;;;;11.52;100.00;99293.44;4998508;28;20409;-78
2024/01/27 10:03:40;;;;;;;9.73;3.13;;;;;;;11.56;100.00;99289.34;5006610;28;20493;-78
2024/01/27 10:06:09;;;;;;;4.20;2.00;;;;;;;11.93;100.00;99298.41;5003456;28;20436;-79
2024/01/27 10:08:37;;;;;;;6.35;2.67;;;;;;;11.99;100.00;99305.50;5000801;28;20409;-79
2024/01/27 10:11:08;;;;;;;2.40;1.70;;;;;;;12.06;100.00;99297.50;4995113;28;20405;-79
2024/01/27 10:13:34;;;;;;;2.53;1.48;;;;;;;12.21;100.00;99293.50;5000130;28;20457;-80
2024/01/27 10:16:02;;;;;;;4.13;1.80;;;;;;;12.31;100.00;99285.09;4997480;28;20414;-80
2024/01/27 10:18:28;;;;;;;3.15;1.73;;;;;;;12.41;100.00;99270.28;5000114;28;20466;-79
2024/01/27 10:20:54;;;;;;;4.18;1.92;;;;;;;12.52;100.00;99271.44;4998502;28;20847;-78
2024/01/27 10:23:21;;;;;;;3.47;1.85;;;;;;;12.67;100.00;99268.44;4999074;28;20429;-79
2024/01/27 10:25:49;;;;;;;2.37;1.40;;;;;;;12.82;100.00;99276.06;5000563;28;20402;-77
2024/01/27 10:28:15;;;;;;;1.83;1.30;;;;;;;12.97;100.00;99265.91;5001163;28;20409;-79
2024/01/27 10:30:42;;;;;;;2.10;1.40;;;;;;;13.18;100.00;99274.28;4993239;28;20418;-78
2024/01/27 10:33:12;;;;;;;2.05;1.55;;;;;;;13.43;100.00;99263.56;4998489;28;20513;-78
2024/01/27 10:35:38;;;;;;;1.77;1.30;;;;;;;13.76;100.00;99262.31;4991038;28;20408;-80
2024/01/27 10:38:04;;;;;;;2.25;1.20;;;;;;;14.08;100.00;99262.91;5001265;28;20406;-80
2024/01/27 10:40:31;;;;;;;3.15;1.23;;;;;;;14.37;100.00;99261.22;4998280;28;20486;-81
2024/01/27 10:43:03;;;;;;;1.75;1.17;;;;;;;14.59;100.00;99257.81;5005572;28;20907;-80
2024/01/27 10:45:34;;;;;;;2.60;1.38;;;;;;;14.83;100.00;99241.81;5004103;28;20436;-78
2024/01/27 10:48:02;;;;;;;2.92;1.20;;;;;;;15.05;100.00;99240.16;4998119;28;20403;-81
2024/01/27 10:50:28;;;;;;;3.25;1.50;;;;;;;15.28;100.00;99233.97;5000302;28;20410;-79
2024/01/27 10:52:57;;;;;;;3.42;1.27;;;;;;;15.46;100.00;99236.47;5002533;28;20531;-79
2024/01/27 10:55:24;;;;;;;1.75;1.20;;;;;;;15.53;100.00;99231.84;4998528;28;20768;-80
2024/01/27 10:57:53;;;;;;;3.30;1.50;;;;;;;15.65;100.00;99227.25;5001011;28;20759;-78
2024/01/27 11:00:23;;;;;;;2.00;1.20;;;;;;;15.79;100.00;99227.78;5004535;28;20407;-81
2024/01/27 11:02:53;;;;;;;1.95;1.30;;;;;;;15.86;100.00;99215.13;4996144;28;20494;-80
2024/01/27 11:05:21;;;;;;;3.03;1.42;;;;;;;15.88;100.00;99221.81;5002468;28;20402;-81
2024/01/27 11:07:47;;;;;;;1.35;1.10;;;;;;;15.80;100.00;99218.72;5002684;28;20399;-81
2024/01/27 11:10:13;;;;;;;2.65;1.45;;;;;;;15.74;100.00;99225.84;4996748;28;20418;-80
2024/01/27 11:12:40;;;;;;;5.53;2.03;;;;;;;15.58;100.00;99220.44;4996914;28;20438;-80
2024/01/27 11:15:07;;;;;;;2.88;1.65;;;;;;;15.46;100.00;99204.47;5007254;28;20422;-80
2024/01/27 11:17:41;;;;;;;4.05;2.00;;;;;;;15.42;100.00;99203.28;5005210;28;20402;-79